createdAt,value
2019-04-10T00:00:30.723Z,49.77
2019-04-10T00:05:41.061Z,49.88
2019-04-10T00:10:55.017Z,50.06
2019-04-10T00:16:10.593Z,49.87
2019-04-10T00:21:22.946Z,50.36
2019-04-10T00:26:37.633Z,50.52
2019-04-10T00:31:54.154Z,50.51
2019-04-10T00:37:26.720Z,50.83
2019-04-10T00:42:34.890Z,51.23
2019-04-10T00:48:04.547Z,51.22
2019-04-10T00:53:12.743Z,51.19
2019-04-10T00:58:41.574Z,51.28
2019-04-10T01:03:52.563Z,51.55
2019-04-10T01:09:21.519Z,51.87
2019-04-10T01:14:32.226Z,52.19
2019-04-10T01:19:50.289Z,52.31
2019-04-10T01:25:00.225Z,52.25
2019-04-10T01:30:10.406Z,51.94
2019-04-10T01:35:18.667Z,52.25
2019-04-10T01:40:27.538Z,52.78
2019-04-10T01:45:39.846Z,52.54
2019-04-10T01:50:47.625Z,52.67
2019-04-10T01:56:27.462Z,53.09
2019-04-10T02:01:38.772Z,53.10
2019-04-10T02:06:55.827Z,53.11
2019-04-10T02:12:04.551Z,52.88
2019-04-10T02:17:12.597Z,53.04
2019-04-10T02:22:20.445Z,53.21
2019-04-10T02:27:35.411Z,53.07
2019-04-10T02:32:50.866Z,52.99
2019-04-10T02:38:25.924Z,53.35
2019-04-10T02:43:20.998Z,53.07
2019-04-10T02:48:33.872Z,52.81
2019-04-10T02:53:50.203Z,53.21
2019-04-10T02:59:07.236Z,52.73
2019-04-10T03:04:20.601Z,52.96
2019-04-10T03:09:52.847Z,52.93
2019-04-10T03:14:47.641Z,53.06
2019-04-10T03:20:03.015Z,52.93
2019-04-10T03:25:15.082Z,52.78
2019-04-10T03:30:34.656Z,52.87
2019-04-10T03:35:57.071Z,53.04
2019-04-10T03:41:03.909Z,52.85
2019-04-10T03:46:14.581Z,52.92
2019-04-10T03:51:32.637Z,52.84
2019-04-10T03:56:46.553Z,53.07
2019-04-10T04:02:01.585Z,52.93
2019-04-10T04:07:13.425Z,52.82
2019-04-10T04:12:28.780Z,52.80
2019-04-10T04:17:42.463Z,52.97
2019-04-10T04:22:59.236Z,52.87
2019-04-10T04:28:11.301Z,52.96
2019-04-10T04:33:23.207Z,52.96
2019-04-10T04:38:32.288Z,53.42
2019-04-10T04:43:47.644Z,53.77
2019-04-10T04:49:06.799Z,54.35
2019-04-10T04:54:23.717Z,54.28
2019-04-10T04:59:37.191Z,54.69
2019-04-10T05:04:44.087Z,54.88
2019-04-10T05:09:58.684Z,55.44
2019-04-10T05:15:10.913Z,55.43
2019-04-10T05:20:21.979Z,55.59
2019-04-10T05:25:37.801Z,55.52
2019-04-10T05:30:56.885Z,55.57
2019-04-10T05:36:09.563Z,55.44
2019-04-10T05:41:17.647Z,55.54
2019-04-10T05:46:30.359Z,54.93
2019-04-10T05:51:41.607Z,54.80
2019-04-10T05:57:01.153Z,54.74
2019-04-10T06:02:08.026Z,54.72
2019-04-10T06:07:19.721Z,54.09
2019-04-10T06:12:34.080Z,53.65
2019-04-10T06:17:49.355Z,54.21
2019-04-10T06:23:01.628Z,53.58
2019-04-10T06:28:14.859Z,53.71
2019-04-10T06:33:29.514Z,53.23
2019-04-10T06:38:41.209Z,53.36
2019-04-10T06:43:50.920Z,52.97
2019-04-10T06:49:09.256Z,52.48
2019-04-10T06:54:20.961Z,51.91
2019-04-10T06:59:30.451Z,52.16
2019-04-10T07:04:47.794Z,51.49
2019-04-10T07:10:02.314Z,51.09
2019-04-10T07:15:24.622Z,50.77
2019-04-10T07:20:37.887Z,50.41
2019-04-10T07:25:54.860Z,49.56
2019-04-10T07:31:08.119Z,49.37
2019-04-10T07:36:20.341Z,49.27
2019-04-10T07:41:31.869Z,48.97
2019-04-10T07:46:48.864Z,48.65
2019-04-10T07:52:03.618Z,48.21
2019-04-10T07:57:16.266Z,47.46
2019-04-10T08:02:27.597Z,47.12
2019-04-10T08:07:40.571Z,47.50
2019-04-10T08:12:53.199Z,46.95
2019-04-10T08:18:00.392Z,45.91
2019-04-10T08:23:15.643Z,46.06
2019-04-10T08:28:34.862Z,45.81
2019-04-10T08:33:50.456Z,45.23
2019-04-10T08:39:00.738Z,44.84
2019-04-10T08:44:18.081Z,44.77
2019-04-10T08:49:25.318Z,44.74
2019-04-10T08:54:36.801Z,44.91
2019-04-10T08:59:51.979Z,44.82
2019-04-10T09:04:57.836Z,44.95
2019-04-10T09:10:14.357Z,44.39
2019-04-10T09:21:13.320Z,43.75
2019-04-10T09:26:33.187Z,43.08
2019-04-10T09:31:40.000Z,42.99
2019-04-10T09:36:49.231Z,42.52
2019-04-10T09:42:01.103Z,42.23
2019-04-10T09:47:12.582Z,42.68
2019-04-10T09:52:19.045Z,42.68
2019-04-10T09:57:32.500Z,41.59
2019-04-10T10:02:45.269Z,41.50
2019-04-10T10:08:02.446Z,40.07
2019-04-10T10:13:33.984Z,39.21
2019-04-10T10:18:46.252Z,37.42
2019-04-10T10:23:58.143Z,37.03
2019-04-10T10:30:02.221Z,36.32
2019-04-10T10:34:30.209Z,34.19
2019-04-10T10:39:41.172Z,35.43
2019-04-10T10:44:56.486Z,34.56
2019-04-10T10:50:01.807Z,35.60
2019-04-10T10:55:07.742Z,35.12
2019-04-10T11:00:20.527Z,34.78
2019-04-10T11:05:37.092Z,34.87
2019-04-10T11:16:07.601Z,34.32
2019-04-10T11:21:18.225Z,31.81
2019-04-10T11:26:32.116Z,31.34
2019-04-10T11:31:58.033Z,32.66
2019-04-10T11:37:39.172Z,31.87
2019-04-10T11:42:40.192Z,32.48
2019-04-10T11:47:51.224Z,32.17
2019-04-10T11:53:07.032Z,30.75
2019-04-10T11:58:28.922Z,30.26
2019-04-10T12:03:48.520Z,27.90
2019-04-10T12:09:29.051Z,30.35
2019-04-10T12:14:21.590Z,27.90
2019-04-10T12:19:33.296Z,29.55
2019-04-10T12:24:43.769Z,29.33
2019-04-10T12:30:33.305Z,28.60
2019-04-10T12:35:49.953Z,27.74
2019-04-10T12:41:08.890Z,26.80
2019-04-10T12:46:15.210Z,26.52
2019-04-10T12:51:22.480Z,27.70
2019-04-10T12:56:34.854Z,24.98
2019-04-10T13:01:51.100Z,26.11
2019-04-10T13:07:21.246Z,23.80
2019-04-10T13:12:37.542Z,27.20
2019-04-10T13:18:16.674Z,26.25
2019-04-10T13:23:26.465Z,27.33
2019-04-10T13:28:43.576Z,26.00
2019-04-10T13:33:53.133Z,25.60
2019-04-10T13:39:05.137Z,25.00
2019-04-10T13:44:18.214Z,26.35
2019-04-10T13:49:31.280Z,23.84
2019-04-10T13:54:40.985Z,24.37
2019-04-10T13:59:50.904Z,26.50
2019-04-10T14:05:13.685Z,26.45
2019-04-10T14:10:25.010Z,26.02
2019-04-10T14:15:32.226Z,23.92
2019-04-10T14:20:51.309Z,23.64
2019-04-10T14:26:04.589Z,25.07
2019-04-10T14:31:28.933Z,23.57
2019-04-10T14:36:42.277Z,24.41
2019-04-10T14:42:00.160Z,24.08
2019-04-10T14:47:19.223Z,25.03
2019-04-10T14:52:28.059Z,24.59
2019-04-10T14:57:43.046Z,27.54
2019-04-10T15:02:58.038Z,29.13
2019-04-10T15:08:12.696Z,29.71
2019-04-10T15:13:27.722Z,30.86
2019-04-10T15:18:35.394Z,30.63
2019-04-10T15:23:47.000Z,31.26
2019-04-10T15:29:02.319Z,31.14
2019-04-10T15:34:16.838Z,31.63
2019-04-10T15:39:33.963Z,31.38
2019-04-10T15:44:40.846Z,30.85
2019-04-10T15:49:53.604Z,31.15
2019-04-10T15:55:01.914Z,31.72
2019-04-10T16:00:17.180Z,31.58
2019-04-10T16:05:31.415Z,31.71
2019-04-10T16:11:05.641Z,31.55
2019-04-10T16:16:50.831Z,31.91
2019-04-10T16:22:08.667Z,31.68
2019-04-10T16:27:24.379Z,32.27
2019-04-10T16:32:30.140Z,31.67
2019-04-10T16:37:49.497Z,31.45
2019-04-10T16:43:06.022Z,31.60
2019-04-10T16:48:21.651Z,31.16
2019-04-10T16:53:31.376Z,31.01
2019-04-10T16:58:41.119Z,31.54
2019-04-10T17:03:56.771Z,31.17
2019-04-10T17:09:16.585Z,32.08
2019-04-10T17:14:24.428Z,32.26
2019-04-10T17:19:46.573Z,31.92
2019-04-10T17:24:53.678Z,32.11
2019-04-10T17:30:05.270Z,32.43
2019-04-10T17:35:15.976Z,32.56
2019-04-10T17:40:33.066Z,32.11
2019-04-10T17:45:31.750Z,32.73
2019-04-10T17:50:37.813Z,33.52
2019-04-10T17:55:45.828Z,33.52
2019-04-10T18:00:57.788Z,34.27
2019-04-10T18:06:10.931Z,34.89
2019-04-10T18:11:26.135Z,35.33
2019-04-10T18:16:38.015Z,35.83
2019-04-10T18:21:44.490Z,36.01
2019-04-10T18:26:57.896Z,36.35
2019-04-10T18:32:05.511Z,36.41
2019-04-10T18:37:15.954Z,36.37
2019-04-10T18:42:29.240Z,36.49
2019-04-10T18:47:38.058Z,36.54
2019-04-10T18:52:51.837Z,36.82
2019-04-10T18:57:59.042Z,36.84
2019-04-10T19:03:44.927Z,37.24
2019-04-10T19:08:46.206Z,37.42
2019-04-10T19:14:00.814Z,37.47
2019-04-10T19:19:08.233Z,37.66
2019-04-10T19:24:24.162Z,37.54
2019-04-10T19:29:36.369Z,37.97
2019-04-10T19:34:41.908Z,37.73
2019-04-10T19:39:51.782Z,37.47
2019-04-10T19:45:05.709Z,37.72
2019-04-10T19:50:17.740Z,37.97
2019-04-10T19:55:37.919Z,38.03
2019-04-10T20:00:46.460Z,38.42
2019-04-10T20:06:22.082Z,38.59
2019-04-10T20:11:41.453Z,39.04
2019-04-10T20:16:52.626Z,39.31
2019-04-10T20:22:12.606Z,39.87
2019-04-10T20:27:32.053Z,40.11
2019-04-10T20:32:46.043Z,40.40
2019-04-10T20:37:57.408Z,40.66
2019-04-10T20:43:10.734Z,41.21
2019-04-10T20:48:16.180Z,41.41
2019-04-10T20:53:24.171Z,41.92
2019-04-10T20:58:38.233Z,42.17
2019-04-10T21:04:05.306Z,42.29
2019-04-10T21:09:19.048Z,42.68
2019-04-10T21:14:31.768Z,43.66
2019-04-10T21:19:51.576Z,43.78
2019-04-10T21:24:54.576Z,44.55
2019-04-10T21:30:26.254Z,44.65
2019-04-10T21:35:41.506Z,45.03
2019-04-10T21:40:59.501Z,45.24
2019-04-10T21:46:18.545Z,45.46
2019-04-10T21:51:25.403Z,46.22
2019-04-10T21:56:41.525Z,46.84
2019-04-10T22:01:52.968Z,47.08
2019-04-10T22:07:20.440Z,47.21
2019-04-10T22:12:34.625Z,47.58
2019-04-10T22:18:07.323Z,47.79
2019-04-10T22:23:26.561Z,48.17
2019-04-10T22:28:37.535Z,48.32
2019-04-10T22:33:48.847Z,48.60
2019-04-10T22:39:02.633Z,49.23
2019-04-10T22:44:13.870Z,49.19
2019-04-10T22:49:23.698Z,49.49
2019-04-10T22:54:37.341Z,49.66
2019-04-10T22:59:51.739Z,49.34
2019-04-10T23:05:07.616Z,50.06
2019-04-10T23:10:15.611Z,50.61
2019-04-10T23:15:25.215Z,50.86
2019-04-10T23:20:30.612Z,51.21
2019-04-10T23:25:45.087Z,50.88
2019-04-10T23:30:50.958Z,51.41
2019-04-10T23:36:09.729Z,51.41
2019-04-10T23:41:28.280Z,51.41
2019-04-10T23:46:45.239Z,51.47
2019-04-10T23:51:51.625Z,51.99
2019-04-10T23:57:05.746Z,51.76
